Usk, WA (99180)

4:42 PM PST on February 27, 2015 (GMT -0800)
RAWS FAIRCHILD 36 RQF WA US | Change Station
CLOSE
Current Station
Personal Weather Station
Location: Cusick, WA
Elevation: 2450 ft
Nearby Weather Stations

Elev 2450 ft 48.42 °N, 117.36 °W | Updated 47 minutes ago

Partly Cloudy
Partly Cloudy
42 °F
Feels Like 42 °F
N
2
Wind Variable Wind from SE
Gusts 8.0 mph

Today
High -- | Low -- °F
--% Chance of Precip.
Yesterday
High -- | Low -- °F
Precip. -- in
6:34 AM 5:30 PM
Waxing Gibbous, 73% visible
Pressure 29.86 in
Visibility 10.0 miles
Clouds Clear
Windchill 42 °F
Dew Point 15 °F
Humidity 32%
Rainfall 0.00 in
Snow Depth Not available.
UV 1 out of 12
Pollen 3.80 out of 12
Air Quality Not available.
Flu Activity Not available.
METAR KDEW 272353Z AUTO 04013KT 10SM CLR 08/M06 A2981 RMK AO2 SLP109 T00781061 10094 20056 53002

More Conditions Fewer Conditions

Pressure 29.86 in
Visibility 10.0 miles
Clouds Clear
Windchill 42 °F
Dew Point 15 °F
Humidity 32%
Rainfall 0.00 in
Snow Depth Not available.
UV 1 out of 12
Pollen 3.80 out of 12
Air Quality Not available.
Flu Activity Not available.
METAR KDEW 272353Z AUTO 04013KT 10SM CLR 08/M06 A2981 RMK AO2 SLP109 T00781061 10094 20056 53002

More Conditions Fewer Conditions

10-Day Weather Forecast

Almanac

Astronomy

Feb. 27, 2015 Rise Set
Actual Time
Civil Twilight
Nautical Twilight
Astronomical Twilight
Moon
Length of Visible Light
Length of Day
Tomorrow will be .
, % of the Moon is Illuminated

Today's Extremes

State Highs State Lows

Community

WunderPhotos

Upload Photos

1,800,910 photos uploaded!

WunderBlogs® & News

Nearby

Air Quality

  Air Quality AQ Index Pollutant
Not available.

Snow Depth

Station Depth Elevation

Earthquake Activity

City Distance Mag. Time & Date
Minimum magnitude displayed is 2.5.

Coastal Water Temperatures

Place Temperature

Nearby Weather Stations